sensor_id;sensor_type;location;lat;lon;timestamp;P1;durP1;ratioP1;P2;durP2;ratioP2
19828;SDS011;10075;50.924;4.396;2024-01-25T00:00:17;55.67;;;10.73;;
19828;SDS011;10075;50.924;4.396;2024-01-25T00:02:44;59.20;;;10.20;;
19828;SDS011;10075;50.924;4.396;2024-01-25T00:05:11;62.07;;;10.57;;
19828;SDS011;10075;50.924;4.396;2024-01-25T00:07:46;62.87;;;10.43;;
19828;SDS011;10075;50.924;4.396;2024-01-25T00:10:13;57.90;;;9.90;;
19828;SDS011;10075;50.924;4.396;2024-01-25T00:12:41;53.73;;;11.47;;
19828;SDS011;10075;50.924;4.396;2024-01-25T00:15:08;66.30;;;10.53;;
19828;SDS011;10075;50.924;4.396;2024-01-25T00:17:35;67.53;;;10.10;;
19828;SDS011;10075;50.924;4.396;2024-01-25T00:20:03;63.17;;;9.77;;
19828;SDS011;10075;50.924;4.396;2024-01-25T00:22:30;54.93;;;9.33;;
19828;SDS011;10075;50.924;4.396;2024-01-25T00:24:59;58.67;;;8.53;;
19828;SDS011;10075;50.924;4.396;2024-01-25T00:27:26;61.67;;;9.30;;
19828;SDS011;10075;50.924;4.396;2024-01-25T00:29:52;65.07;;;10.43;;
19828;SDS011;10075;50.924;4.396;2024-01-25T00:32:19;62.73;;;10.93;;
19828;SDS011;10075;50.924;4.396;2024-01-25T00:34:46;68.17;;;9.60;;
19828;SDS011;10075;50.924;4.396;2024-01-25T00:37:14;58.10;;;9.97;;
19828;SDS011;10075;50.924;4.396;2024-01-25T00:39:42;65.23;;;10.20;;
19828;SDS011;10075;50.924;4.396;2024-01-25T00:42:11;59.03;;;10.03;;
19828;SDS011;10075;50.924;4.396;2024-01-25T00:44:40;58.83;;;10.30;;
19828;SDS011;10075;50.924;4.396;2024-01-25T00:47:08;64.30;;;10.83;;
19828;SDS011;10075;50.924;4.396;2024-01-25T00:49:35;58.13;;;10.97;;
19828;SDS011;10075;50.924;4.396;2024-01-25T00:52:03;49.67;;;10.20;;
19828;SDS011;10075;50.924;4.396;2024-01-25T00:54:30;55.50;;;10.60;;
19828;SDS011;10075;50.924;4.396;2024-01-25T00:56:58;58.57;;;8.60;;
19828;SDS011;10075;50.924;4.396;2024-01-25T00:59:27;61.97;;;10.10;;
19828;SDS011;10075;50.924;4.396;2024-01-25T01:01:55;62.07;;;10.50;;
19828;SDS011;10075;50.924;4.396;2024-01-25T01:04:24;58.63;;;10.33;;
19828;SDS011;10075;50.924;4.396;2024-01-25T01:06:52;55.13;;;9.67;;
19828;SDS011;10075;50.924;4.396;2024-01-25T01:09:19;61.87;;;10.90;;
19828;SDS011;10075;50.924;4.396;2024-01-25T01:11:46;73.10;;;11.60;;
19828;SDS011;10075;50.924;4.396;2024-01-25T01:14:15;56.67;;;10.40;;
19828;SDS011;10075;50.924;4.396;2024-01-25T01:16:43;54.67;;;8.87;;
19828;SDS011;10075;50.924;4.396;2024-01-25T01:19:10;61.90;;;10.90;;
19828;SDS011;10075;50.924;4.396;2024-01-25T01:21:37;58.50;;;9.87;;
19828;SDS011;10075;50.924;4.396;2024-01-25T01:24:08;65.47;;;10.33;;
19828;SDS011;10075;50.924;4.396;2024-01-25T01:26:36;60.80;;;10.27;;
19828;SDS011;10075;50.924;4.396;2024-01-25T01:29:03;61.37;;;10.57;;
19828;SDS011;10075;50.924;4.396;2024-01-25T01:31:30;58.43;;;10.23;;
19828;SDS011;10075;50.924;4.396;2024-01-25T01:33:58;59.13;;;9.17;;
19828;SDS011;10075;50.924;4.396;2024-01-25T01:36:26;58.87;;;9.90;;
19828;SDS011;10075;50.924;4.396;2024-01-25T01:38:53;60.37;;;10.13;;
19828;SDS011;10075;50.924;4.396;2024-01-25T01:41:20;70.70;;;10.47;;
19828;SDS011;10075;50.924;4.396;2024-01-25T01:43:46;63.07;;;9.53;;
19828;SDS011;10075;50.924;4.396;2024-01-25T01:49:00;62.00;;;9.60;;
19828;SDS011;10075;50.924;4.396;2024-01-25T01:51:27;70.40;;;10.50;;
19828;SDS011;10075;50.924;4.396;2024-01-25T01:53:55;63.77;;;11.33;;
19828;SDS011;10075;50.924;4.396;2024-01-25T01:56:23;66.57;;;11.00;;
19828;SDS011;10075;50.924;4.396;2024-01-25T01:58:52;74.17;;;10.00;;
19828;SDS011;10075;50.924;4.396;2024-01-25T02:01:20;72.60;;;11.57;;
19828;SDS011;10075;50.924;4.396;2024-01-25T02:03:47;67.47;;;11.37;;
19828;SDS011;10075;50.924;4.396;2024-01-25T02:06:16;69.47;;;11.17;;
19828;SDS011;10075;50.924;4.396;2024-01-25T02:08:42;76.33;;;10.90;;
19828;SDS011;10075;50.924;4.396;2024-01-25T02:11:11;70.80;;;10.60;;
19828;SDS011;10075;50.924;4.396;2024-01-25T02:13:38;67.43;;;10.03;;
19828;SDS011;10075;50.924;4.396;2024-01-25T02:16:06;71.37;;;10.07;;
19828;SDS011;10075;50.924;4.396;2024-01-25T02:18:34;59.07;;;9.03;;
19828;SDS011;10075;50.924;4.396;2024-01-25T02:21:01;58.37;;;8.70;;
19828;SDS011;10075;50.924;4.396;2024-01-25T02:23:29;70.03;;;10.90;;
19828;SDS011;10075;50.924;4.396;2024-01-25T02:25:56;60.23;;;10.10;;
19828;SDS011;10075;50.924;4.396;2024-01-25T02:28:23;80.30;;;11.43;;
19828;SDS011;10075;50.924;4.396;2024-01-25T02:30:50;60.20;;;9.20;;
19828;SDS011;10075;50.924;4.396;2024-01-25T02:33:17;65.00;;;10.37;;
19828;SDS011;10075;50.924;4.396;2024-01-25T02:35:44;59.70;;;9.73;;
19828;SDS011;10075;50.924;4.396;2024-01-25T02:38:11;59.93;;;9.03;;
19828;SDS011;10075;50.924;4.396;2024-01-25T02:40:39;58.47;;;10.10;;
19828;SDS011;10075;50.924;4.396;2024-01-25T02:43:06;58.93;;;10.80;;
19828;SDS011;10075;50.924;4.396;2024-01-25T02:45:33;62.30;;;10.10;;
19828;SDS011;10075;50.924;4.396;2024-01-25T02:48:00;53.17;;;8.33;;
19828;SDS011;10075;50.924;4.396;2024-01-25T02:50:28;73.37;;;10.60;;
19828;SDS011;10075;50.924;4.396;2024-01-25T02:52:55;66.03;;;9.00;;
19828;SDS011;10075;50.924;4.396;2024-01-25T02:55:22;70.43;;;9.83;;
19828;SDS011;10075;50.924;4.396;2024-01-25T02:57:51;66.43;;;9.33;;
19828;SDS011;10075;50.924;4.396;2024-01-25T03:00:18;71.93;;;10.50;;
19828;SDS011;10075;50.924;4.396;2024-01-25T03:02:45;65.57;;;10.03;;
19828;SDS011;10075;50.924;4.396;2024-01-25T03:05:11;62.07;;;10.40;;
19828;SDS011;10075;50.924;4.396;2024-01-25T03:07:38;63.00;;;9.97;;
19828;SDS011;10075;50.924;4.396;2024-01-25T03:10:05;61.50;;;9.87;;
19828;SDS011;10075;50.924;4.396;2024-01-25T03:12:33;49.63;;;9.03;;
19828;SDS011;10075;50.924;4.396;2024-01-25T03:15:01;58.20;;;9.60;;
19828;SDS011;10075;50.924;4.396;2024-01-25T03:17:28;53.77;;;9.17;;
19828;SDS011;10075;50.924;4.396;2024-01-25T03:19:55;64.37;;;9.87;;
19828;SDS011;10075;50.924;4.396;2024-01-25T03:22:22;63.30;;;9.07;;
19828;SDS011;10075;50.924;4.396;2024-01-25T03:24:49;57.87;;;9.10;;
19828;SDS011;10075;50.924;4.396;2024-01-25T03:27:16;59.10;;;9.33;;
19828;SDS011;10075;50.924;4.396;2024-01-25T03:29:43;57.23;;;9.37;;
19828;SDS011;10075;50.924;4.396;2024-01-25T03:32:11;59.07;;;10.37;;
19828;SDS011;10075;50.924;4.396;2024-01-25T03:34:38;71.80;;;10.33;;
19828;SDS011;10075;50.924;4.396;2024-01-25T03:37:05;69.30;;;9.57;;
19828;SDS011;10075;50.924;4.396;2024-01-25T03:39:32;69.17;;;10.07;;
19828;SDS011;10075;50.924;4.396;2024-01-25T03:41:59;63.53;;;9.27;;
19828;SDS011;10075;50.924;4.396;2024-01-25T03:44:26;69.60;;;9.23;;
19828;SDS011;10075;50.924;4.396;2024-01-25T03:46:53;57.20;;;10.20;;
19828;SDS011;10075;50.924;4.396;2024-01-25T03:49:21;64.83;;;11.37;;
19828;SDS011;10075;50.924;4.396;2024-01-25T03:51:48;63.73;;;10.13;;
19828;SDS011;10075;50.924;4.396;2024-01-25T03:54:16;74.37;;;10.87;;
19828;SDS011;10075;50.924;4.396;2024-01-25T03:56:43;56.47;;;8.90;;
19828;SDS011;10075;50.924;4.396;2024-01-25T03:59:10;66.70;;;9.70;;
19828;SDS011;10075;50.924;4.396;2024-01-25T04:01:42;52.40;;;8.00;;
19828;SDS011;10075;50.924;4.396;2024-01-25T04:04:10;69.23;;;9.87;;
19828;SDS011;10075;50.924;4.396;2024-01-25T04:06:40;63.00;;;9.83;;
19828;SDS011;10075;50.924;4.396;2024-01-25T04:09:08;61.70;;;10.17;;
19828;SDS011;10075;50.924;4.396;2024-01-25T04:11:36;68.47;;;10.40;;
19828;SDS011;10075;50.924;4.396;2024-01-25T04:14:03;53.57;;;8.27;;
19828;SDS011;10075;50.924;4.396;2024-01-25T04:16:31;59.03;;;10.57;;
19828;SDS011;10075;50.924;4.396;2024-01-25T04:18:58;64.23;;;11.10;;
19828;SDS011;10075;50.924;4.396;2024-01-25T04:21:26;73.73;;;10.30;;
19828;SDS011;10075;50.924;4.396;2024-01-25T04:23:54;72.07;;;10.30;;
19828;SDS011;10075;50.924;4.396;2024-01-25T04:26:21;71.93;;;9.70;;
19828;SDS011;10075;50.924;4.396;2024-01-25T04:28:48;57.00;;;10.13;;
19828;SDS011;10075;50.924;4.396;2024-01-25T04:31:15;66.50;;;9.87;;
19828;SDS011;10075;50.924;4.396;2024-01-25T04:33:42;66.60;;;10.70;;
19828;SDS011;10075;50.924;4.396;2024-01-25T04:36:09;72.73;;;10.50;;
19828;SDS011;10075;50.924;4.396;2024-01-25T04:38:36;57.80;;;8.63;;
19828;SDS011;10075;50.924;4.396;2024-01-25T04:41:05;63.00;;;9.83;;
19828;SDS011;10075;50.924;4.396;2024-01-25T04:43:33;67.03;;;10.83;;
19828;SDS011;10075;50.924;4.396;2024-01-25T04:46:01;59.37;;;9.67;;
19828;SDS011;10075;50.924;4.396;2024-01-25T04:48:28;54.97;;;9.23;;
19828;SDS011;10075;50.924;4.396;2024-01-25T04:50:56;72.57;;;9.77;;
19828;SDS011;10075;50.924;4.396;2024-01-25T04:53:23;55.10;;;10.53;;
19828;SDS011;10075;50.924;4.396;2024-01-25T04:55:50;71.63;;;10.53;;
19828;SDS011;10075;50.924;4.396;2024-01-25T04:58:18;64.70;;;9.60;;
19828;SDS011;10075;50.924;4.396;2024-01-25T05:00:45;67.10;;;10.57;;
19828;SDS011;10075;50.924;4.396;2024-01-25T05:03:12;75.37;;;10.33;;
19828;SDS011;10075;50.924;4.396;2024-01-25T05:05:39;63.20;;;10.40;;
19828;SDS011;10075;50.924;4.396;2024-01-25T05:08:06;64.80;;;9.83;;
19828;SDS011;10075;50.924;4.396;2024-01-25T05:10:33;78.77;;;10.13;;
19828;SDS011;10075;50.924;4.396;2024-01-25T05:13:00;70.07;;;11.63;;
19828;SDS011;10075;50.924;4.396;2024-01-25T05:15:28;81.87;;;11.00;;
19828;SDS011;10075;50.924;4.396;2024-01-25T05:17:55;76.33;;;12.30;;
19828;SDS011;10075;50.924;4.396;2024-01-25T05:20:22;77.73;;;10.83;;
19828;SDS011;10075;50.924;4.396;2024-01-25T05:22:53;71.53;;;10.60;;
19828;SDS011;10075;50.924;4.396;2024-01-25T05:25:20;76.67;;;10.93;;
19828;SDS011;10075;50.924;4.396;2024-01-25T05:27:47;76.57;;;10.47;;
19828;SDS011;10075;50.924;4.396;2024-01-25T05:30:14;78.10;;;12.43;;
19828;SDS011;10075;50.924;4.396;2024-01-25T05:32:44;75.40;;;11.50;;
19828;SDS011;10075;50.924;4.396;2024-01-25T05:35:11;61.73;;;11.63;;
19828;SDS011;10075;50.924;4.396;2024-01-25T05:37:38;92.37;;;12.30;;
19828;SDS011;10075;50.924;4.396;2024-01-25T05:40:05;74.23;;;11.70;;
19828;SDS011;10075;50.924;4.396;2024-01-25T05:42:34;86.20;;;12.67;;
19828;SDS011;10075;50.924;4.396;2024-01-25T05:45:01;83.50;;;12.87;;
19828;SDS011;10075;50.924;4.396;2024-01-25T05:47:28;87.30;;;10.97;;
19828;SDS011;10075;50.924;4.396;2024-01-25T05:49:56;79.30;;;11.27;;
19828;SDS011;10075;50.924;4.396;2024-01-25T05:52:23;77.10;;;12.50;;
19828;SDS011;10075;50.924;4.396;2024-01-25T05:54:51;97.47;;;13.87;;
19828;SDS011;10075;50.924;4.396;2024-01-25T05:57:18;84.23;;;12.20;;
19828;SDS011;10075;50.924;4.396;2024-01-25T05:59:45;86.63;;;12.17;;
19828;SDS011;10075;50.924;4.396;2024-01-25T06:02:12;89.87;;;13.33;;
19828;SDS011;10075;50.924;4.396;2024-01-25T06:04:39;72.70;;;11.63;;
19828;SDS011;10075;50.924;4.396;2024-01-25T06:07:07;94.23;;;13.00;;
19828;SDS011;10075;50.924;4.396;2024-01-25T06:09:35;103.53;;;14.60;;
19828;SDS011;10075;50.924;4.396;2024-01-25T06:12:02;83.87;;;12.73;;
19828;SDS011;10075;50.924;4.396;2024-01-25T06:14:30;82.33;;;13.30;;
19828;SDS011;10075;50.924;4.396;2024-01-25T06:16:57;72.03;;;11.57;;
19828;SDS011;10075;50.924;4.396;2024-01-25T06:19:24;74.03;;;13.23;;
19828;SDS011;10075;50.924;4.396;2024-01-25T06:21:51;86.40;;;14.30;;
19828;SDS011;10075;50.924;4.396;2024-01-25T06:24:19;81.87;;;13.17;;
19828;SDS011;10075;50.924;4.396;2024-01-25T06:26:46;87.07;;;14.87;;
19828;SDS011;10075;50.924;4.396;2024-01-25T06:29:13;96.97;;;14.83;;
19828;SDS011;10075;50.924;4.396;2024-01-25T06:31:41;84.80;;;16.13;;
19828;SDS011;10075;50.924;4.396;2024-01-25T06:34:09;89.97;;;15.60;;
19828;SDS011;10075;50.924;4.396;2024-01-25T06:36:36;84.17;;;15.57;;
19828;SDS011;10075;50.924;4.396;2024-01-25T06:39:03;100.47;;;17.00;;
19828;SDS011;10075;50.924;4.396;2024-01-25T06:41:32;75.87;;;15.57;;
19828;SDS011;10075;50.924;4.396;2024-01-25T06:43:59;92.13;;;17.33;;
19828;SDS011;10075;50.924;4.396;2024-01-25T06:46:28;100.93;;;16.60;;
19828;SDS011;10075;50.924;4.396;2024-01-25T06:48:55;86.83;;;16.03;;
19828;SDS011;10075;50.924;4.396;2024-01-25T06:51:22;92.80;;;16.80;;
19828;SDS011;10075;50.924;4.396;2024-01-25T06:53:49;98.27;;;16.07;;
19828;SDS011;10075;50.924;4.396;2024-01-25T06:56:16;94.57;;;16.80;;
19828;SDS011;10075;50.924;4.396;2024-01-25T06:58:44;118.60;;;19.17;;
19828;SDS011;10075;50.924;4.396;2024-01-25T07:01:11;89.87;;;17.27;;
19828;SDS011;10075;50.924;4.396;2024-01-25T07:03:38;99.90;;;18.40;;
19828;SDS011;10075;50.924;4.396;2024-01-25T07:06:05;88.87;;;17.20;;
19828;SDS011;10075;50.924;4.396;2024-01-25T07:08:32;104.10;;;20.33;;
19828;SDS011;10075;50.924;4.396;2024-01-25T07:10:59;97.77;;;19.10;;
19828;SDS011;10075;50.924;4.396;2024-01-25T07:13:27;92.33;;;21.37;;
19828;SDS011;10075;50.924;4.396;2024-01-25T07:15:55;101.50;;;21.93;;
19828;SDS011;10075;50.924;4.396;2024-01-25T07:18:22;123.27;;;21.93;;
19828;SDS011;10075;50.924;4.396;2024-01-25T07:20:49;114.93;;;22.67;;
19828;SDS011;10075;50.924;4.396;2024-01-25T07:23:17;134.50;;;24.50;;
19828;SDS011;10075;50.924;4.396;2024-01-25T07:25:44;171.63;;;26.07;;
19828;SDS011;10075;50.924;4.396;2024-01-25T07:28:11;137.57;;;24.50;;
19828;SDS011;10075;50.924;4.396;2024-01-25T07:30:38;127.97;;;24.13;;
19828;SDS011;10075;50.924;4.396;2024-01-25T07:33:06;159.87;;;25.57;;
19828;SDS011;10075;50.924;4.396;2024-01-25T07:35:33;162.83;;;26.03;;
19828;SDS011;10075;50.924;4.396;2024-01-25T07:38:00;166.73;;;27.13;;
19828;SDS011;10075;50.924;4.396;2024-01-25T07:40:27;164.30;;;26.37;;
19828;SDS011;10075;50.924;4.396;2024-01-25T07:42:54;172.60;;;27.63;;
19828;SDS011;10075;50.924;4.396;2024-01-25T07:45:21;158.93;;;26.23;;
19828;SDS011;10075;50.924;4.396;2024-01-25T07:47:48;146.53;;;25.73;;
19828;SDS011;10075;50.924;4.396;2024-01-25T07:50:16;181.70;;;28.40;;
19828;SDS011;10075;50.924;4.396;2024-01-25T07:52:43;178.77;;;26.47;;
19828;SDS011;10075;50.924;4.396;2024-01-25T07:55:11;156.00;;;26.07;;
19828;SDS011;10075;50.924;4.396;2024-01-25T07:57:38;144.43;;;24.83;;
19828;SDS011;10075;50.924;4.396;2024-01-25T08:00:05;172.63;;;27.17;;
19828;SDS011;10075;50.924;4.396;2024-01-25T08:02:33;232.27;;;31.77;;
19828;SDS011;10075;50.924;4.396;2024-01-25T08:05:01;187.83;;;28.30;;
19828;SDS011;10075;50.924;4.396;2024-01-25T08:07:29;167.17;;;27.10;;
19828;SDS011;10075;50.924;4.396;2024-01-25T08:09:56;201.57;;;28.67;;
19828;SDS011;10075;50.924;4.396;2024-01-25T08:12:24;199.57;;;28.57;;
19828;SDS011;10075;50.924;4.396;2024-01-25T08:14:51;256.43;;;33.03;;
19828;SDS011;10075;50.924;4.396;2024-01-25T08:17:18;172.93;;;26.37;;
19828;SDS011;10075;50.924;4.396;2024-01-25T08:19:45;196.80;;;27.07;;
19828;SDS011;10075;50.924;4.396;2024-01-25T08:22:13;231.53;;;29.83;;
19828;SDS011;10075;50.924;4.396;2024-01-25T08:24:42;233.47;;;30.03;;
19828;SDS011;10075;50.924;4.396;2024-01-25T08:27:09;203.87;;;30.93;;
19828;SDS011;10075;50.924;4.396;2024-01-25T08:29:37;212.93;;;29.47;;
19828;SDS011;10075;50.924;4.396;2024-01-25T08:32:05;146.13;;;27.00;;
19828;SDS011;10075;50.924;4.396;2024-01-25T08:34:32;145.77;;;26.93;;
19828;SDS011;10075;50.924;4.396;2024-01-25T08:36:59;156.77;;;27.53;;
19828;SDS011;10075;50.924;4.396;2024-01-25T08:39:26;172.40;;;28.20;;
19828;SDS011;10075;50.924;4.396;2024-01-25T08:42:00;160.90;;;29.33;;
19828;SDS011;10075;50.924;4.396;2024-01-25T08:44:28;170.03;;;28.77;;
19828;SDS011;10075;50.924;4.396;2024-01-25T08:46:55;170.77;;;28.87;;
19828;SDS011;10075;50.924;4.396;2024-01-25T08:49:22;147.27;;;26.43;;
19828;SDS011;10075;50.924;4.396;2024-01-25T08:51:49;176.70;;;27.77;;
19828;SDS011;10075;50.924;4.396;2024-01-25T08:54:16;146.23;;;27.53;;
19828;SDS011;10075;50.924;4.396;2024-01-25T08:56:43;202.63;;;29.70;;
19828;SDS011;10075;50.924;4.396;2024-01-25T08:59:12;125.00;;;26.67;;
19828;SDS011;10075;50.924;4.396;2024-01-25T09:01:41;165.30;;;26.93;;
19828;SDS011;10075;50.924;4.396;2024-01-25T09:04:07;114.77;;;24.57;;
19828;SDS011;10075;50.924;4.396;2024-01-25T09:06:34;146.93;;;27.43;;
19828;SDS011;10075;50.924;4.396;2024-01-25T09:09:02;138.60;;;27.60;;
19828;SDS011;10075;50.924;4.396;2024-01-25T09:11:29;121.47;;;26.80;;
19828;SDS011;10075;50.924;4.396;2024-01-25T09:13:55;162.57;;;28.87;;
19828;SDS011;10075;50.924;4.396;2024-01-25T09:16:24;142.90;;;29.20;;
19828;SDS011;10075;50.924;4.396;2024-01-25T09:18:51;126.30;;;27.77;;
19828;SDS011;10075;50.924;4.396;2024-01-25T09:21:18;127.50;;;27.27;;
19828;SDS011;10075;50.924;4.396;2024-01-25T09:23:44;103.07;;;25.87;;
19828;SDS011;10075;50.924;4.396;2024-01-25T09:26:11;137.63;;;30.17;;
19828;SDS011;10075;50.924;4.396;2024-01-25T09:28:38;112.07;;;26.37;;
19828;SDS011;10075;50.924;4.396;2024-01-25T09:31:05;153.30;;;29.03;;
19828;SDS011;10075;50.924;4.396;2024-01-25T09:33:33;119.07;;;27.03;;
19828;SDS011;10075;50.924;4.396;2024-01-25T09:36:00;126.10;;;27.30;;
19828;SDS011;10075;50.924;4.396;2024-01-25T09:38:27;92.97;;;25.73;;
19828;SDS011;10075;50.924;4.396;2024-01-25T09:40:56;110.60;;;26.10;;
19828;SDS011;10075;50.924;4.396;2024-01-25T09:43:24;71.60;;;24.03;;
19828;SDS011;10075;50.924;4.396;2024-01-25T09:45:52;96.93;;;24.20;;
19828;SDS011;10075;50.924;4.396;2024-01-25T09:48:20;91.73;;;22.20;;
19828;SDS011;10075;50.924;4.396;2024-01-25T09:50:48;75.00;;;21.27;;
19828;SDS011;10075;50.924;4.396;2024-01-25T09:53:17;60.37;;;19.00;;
19828;SDS011;10075;50.924;4.396;2024-01-25T09:55:48;68.40;;;19.13;;
19828;SDS011;10075;50.924;4.396;2024-01-25T09:58:31;76.00;;;21.07;;
19828;SDS011;10075;50.924;4.396;2024-01-25T10:01:02;68.87;;;20.77;;
19828;SDS011;10075;50.924;4.396;2024-01-25T10:03:30;71.33;;;21.93;;
19828;SDS011;10075;50.924;4.396;2024-01-25T10:05:58;64.23;;;22.00;;
19828;SDS011;10075;50.924;4.396;2024-01-25T10:08:26;66.10;;;23.00;;
19828;SDS011;10075;50.924;4.396;2024-01-25T10:10:53;70.40;;;24.50;;
19828;SDS011;10075;50.924;4.396;2024-01-25T10:13:20;72.27;;;25.30;;
19828;SDS011;10075;50.924;4.396;2024-01-25T10:15:47;65.07;;;24.07;;
19828;SDS011;10075;50.924;4.396;2024-01-25T10:18:14;74.63;;;24.20;;
19828;SDS011;10075;50.924;4.396;2024-01-25T10:20:42;72.50;;;23.97;;
19828;SDS011;10075;50.924;4.396;2024-01-25T10:23:10;65.83;;;24.50;;
19828;SDS011;10075;50.924;4.396;2024-01-25T10:25:37;67.97;;;25.47;;
19828;SDS011;10075;50.924;4.396;2024-01-25T10:28:05;73.10;;;24.87;;
19828;SDS011;10075;50.924;4.396;2024-01-25T10:30:33;73.73;;;25.10;;
19828;SDS011;10075;50.924;4.396;2024-01-25T10:33:01;68.33;;;24.60;;
19828;SDS011;10075;50.924;4.396;2024-01-25T10:35:29;62.90;;;23.37;;
19828;SDS011;10075;50.924;4.396;2024-01-25T10:37:57;69.70;;;23.60;;
19828;SDS011;10075;50.924;4.396;2024-01-25T10:40:26;64.67;;;23.27;;
19828;SDS011;10075;50.924;4.396;2024-01-25T10:42:54;69.43;;;23.23;;
19828;SDS011;10075;50.924;4.396;2024-01-25T10:45:21;77.03;;;22.87;;
19828;SDS011;10075;50.924;4.396;2024-01-25T10:47:48;69.13;;;25.00;;
19828;SDS011;10075;50.924;4.396;2024-01-25T10:50:15;64.17;;;24.00;;
19828;SDS011;10075;50.924;4.396;2024-01-25T10:52:42;69.93;;;22.37;;
19828;SDS011;10075;50.924;4.396;2024-01-25T10:55:10;67.88;;;22.77;;
19828;SDS011;10075;50.924;4.396;2024-01-25T10:57:41;79.70;;;22.80;;
19828;SDS011;10075;50.924;4.396;2024-01-25T11:00:10;78.30;;;24.48;;
19828;SDS011;10075;50.924;4.396;2024-01-25T11:02:39;63.65;;;21.02;;
19828;SDS011;10075;50.924;4.396;2024-01-25T11:05:08;63.93;;;21.40;;
19828;SDS011;10075;50.924;4.396;2024-01-25T11:07:42;69.90;;;22.10;;
19828;SDS011;10075;50.924;4.396;2024-01-25T11:10:13;65.50;;;22.17;;
19828;SDS011;10075;50.924;4.396;2024-01-25T11:12:50;71.00;;;22.23;;
19828;SDS011;10075;50.924;4.396;2024-01-25T11:15:19;60.13;;;19.70;;
19828;SDS011;10075;50.924;4.396;2024-01-25T11:17:50;62.50;;;20.00;;
19828;SDS011;10075;50.924;4.396;2024-01-25T11:20:22;62.13;;;20.67;;
19828;SDS011;10075;50.924;4.396;2024-01-25T11:22:55;66.63;;;20.80;;
19828;SDS011;10075;50.924;4.396;2024-01-25T11:25:23;73.88;;;19.67;;
19828;SDS011;10075;50.924;4.396;2024-01-25T11:27:55;68.43;;;20.50;;
19828;SDS011;10075;50.924;4.396;2024-01-25T11:30:23;60.03;;;19.43;;
19828;SDS011;10075;50.924;4.396;2024-01-25T11:32:51;56.77;;;19.47;;
19828;SDS011;10075;50.924;4.396;2024-01-25T11:35:18;50.75;;;18.70;;
19828;SDS011;10075;50.924;4.396;2024-01-25T11:37:46;53.55;;;17.25;;
19828;SDS011;10075;50.924;4.396;2024-01-25T11:40:17;54.95;;;18.60;;
19828;SDS011;10075;50.924;4.396;2024-01-25T11:42:47;55.20;;;17.60;;
19828;SDS011;10075;50.924;4.396;2024-01-25T11:45:23;55.27;;;17.50;;
19828;SDS011;10075;50.924;4.396;2024-01-25T11:47:51;51.83;;;16.10;;
19828;SDS011;10075;50.924;4.396;2024-01-25T11:50:19;54.47;;;16.60;;
19828;SDS011;10075;50.924;4.396;2024-01-25T11:52:48;54.40;;;17.97;;
19828;SDS011;10075;50.924;4.396;2024-01-25T11:55:15;48.57;;;17.80;;
19828;SDS011;10075;50.924;4.396;2024-01-25T11:57:47;48.53;;;17.37;;
19828;SDS011;10075;50.924;4.396;2024-01-25T12:00:18;44.33;;;15.67;;
19828;SDS011;10075;50.924;4.396;2024-01-25T12:02:47;44.07;;;16.43;;
19828;SDS011;10075;50.924;4.396;2024-01-25T12:05:14;43.53;;;15.07;;
19828;SDS011;10075;50.924;4.396;2024-01-25T12:07:41;37.97;;;14.93;;
19828;SDS011;10075;50.924;4.396;2024-01-25T12:10:09;36.90;;;14.47;;
19828;SDS011;10075;50.924;4.396;2024-01-25T12:12:41;41.97;;;14.77;;
19828;SDS011;10075;50.924;4.396;2024-01-25T12:15:08;41.27;;;14.83;;
19828;SDS011;10075;50.924;4.396;2024-01-25T12:17:35;41.20;;;14.67;;
19828;SDS011;10075;50.924;4.396;2024-01-25T12:20:06;45.83;;;14.70;;
19828;SDS011;10075;50.924;4.396;2024-01-25T12:22:35;44.42;;;14.40;;
19828;SDS011;10075;50.924;4.396;2024-01-25T12:25:06;40.20;;;13.43;;
19828;SDS011;10075;50.924;4.396;2024-01-25T12:27:34;46.10;;;13.53;;
19828;SDS011;10075;50.924;4.396;2024-01-25T12:30:02;45.43;;;12.97;;
19828;SDS011;10075;50.924;4.396;2024-01-25T12:32:30;41.50;;;14.33;;
19828;SDS011;10075;50.924;4.396;2024-01-25T12:34:57;39.53;;;13.50;;
19828;SDS011;10075;50.924;4.396;2024-01-25T12:37:27;39.00;;;13.47;;
19828;SDS011;10075;50.924;4.396;2024-01-25T12:39:54;43.40;;;12.53;;
19828;SDS011;10075;50.924;4.396;2024-01-25T12:42:22;40.37;;;12.20;;
19828;SDS011;10075;50.924;4.396;2024-01-25T12:44:51;38.80;;;12.07;;
19828;SDS011;10075;50.924;4.396;2024-01-25T12:47:19;39.07;;;12.83;;
19828;SDS011;10075;50.924;4.396;2024-01-25T12:49:46;38.83;;;12.90;;
19828;SDS011;10075;50.924;4.396;2024-01-25T12:52:14;38.25;;;14.43;;
19828;SDS011;10075;50.924;4.396;2024-01-25T12:54:43;36.47;;;14.97;;
19828;SDS011;10075;50.924;4.396;2024-01-25T12:57:10;42.97;;;15.95;;
19828;SDS011;10075;50.924;4.396;2024-01-25T12:59:38;35.73;;;16.80;;
19828;SDS011;10075;50.924;4.396;2024-01-25T13:02:05;33.23;;;16.17;;
19828;SDS011;10075;50.924;4.396;2024-01-25T13:04:34;44.30;;;18.30;;
19828;SDS011;10075;50.924;4.396;2024-01-25T13:07:01;36.83;;;16.13;;
19828;SDS011;10075;50.924;4.396;2024-01-25T13:09:28;31.50;;;15.97;;
19828;SDS011;10075;50.924;4.396;2024-01-25T13:11:59;27.47;;;13.87;;
19828;SDS011;10075;50.924;4.396;2024-01-25T13:14:27;33.23;;;14.00;;
19828;SDS011;10075;50.924;4.396;2024-01-25T13:16:54;26.43;;;12.53;;
19828;SDS011;10075;50.924;4.396;2024-01-25T13:19:21;27.73;;;11.80;;
19828;SDS011;10075;50.924;4.396;2024-01-25T13:21:48;30.67;;;12.63;;
19828;SDS011;10075;50.924;4.396;2024-01-25T13:24:15;30.50;;;11.77;;
19828;SDS011;10075;50.924;4.396;2024-01-25T13:26:41;27.30;;;12.43;;
19828;SDS011;10075;50.924;4.396;2024-01-25T13:29:12;26.37;;;11.90;;
19828;SDS011;10075;50.924;4.396;2024-01-25T13:31:39;26.43;;;11.60;;
19828;SDS011;10075;50.924;4.396;2024-01-25T13:34:06;23.10;;;10.63;;
19828;SDS011;10075;50.924;4.396;2024-01-25T13:36:33;19.63;;;10.50;;
19828;SDS011;10075;50.924;4.396;2024-01-25T13:39:00;24.00;;;11.00;;
19828;SDS011;10075;50.924;4.396;2024-01-25T13:41:27;23.00;;;10.80;;
19828;SDS011;10075;50.924;4.396;2024-01-25T13:43:54;17.02;;;10.38;;
19828;SDS011;10075;50.924;4.396;2024-01-25T13:46:22;20.63;;;11.35;;
19828;SDS011;10075;50.924;4.396;2024-01-25T13:48:49;20.63;;;11.45;;
19828;SDS011;10075;50.924;4.396;2024-01-25T13:51:16;24.55;;;11.45;;
19828;SDS011;10075;50.924;4.396;2024-01-25T13:53:43;17.73;;;10.55;;
19828;SDS011;10075;50.924;4.396;2024-01-25T13:56:11;22.17;;;11.13;;
19828;SDS011;10075;50.924;4.396;2024-01-25T13:58:36;19.08;;;11.65;;
19828;SDS011;10075;50.924;4.396;2024-01-25T14:01:03;20.92;;;12.90;;
19828;SDS011;10075;50.924;4.396;2024-01-25T14:03:32;19.75;;;12.50;;
19828;SDS011;10075;50.924;4.396;2024-01-25T14:05:59;21.50;;;12.32;;
19828;SDS011;10075;50.924;4.396;2024-01-25T14:08:29;22.58;;;12.40;;
19828;SDS011;10075;50.924;4.396;2024-01-25T14:10:56;22.63;;;13.55;;
19828;SDS011;10075;50.924;4.396;2024-01-25T14:13:23;22.02;;;13.15;;
19828;SDS011;10075;50.924;4.396;2024-01-25T14:15:50;22.02;;;13.77;;
19828;SDS011;10075;50.924;4.396;2024-01-25T14:18:17;24.70;;;13.13;;
19828;SDS011;10075;50.924;4.396;2024-01-25T14:20:45;19.65;;;13.60;;
19828;SDS011;10075;50.924;4.396;2024-01-25T14:23:12;20.65;;;14.00;;
19828;SDS011;10075;50.924;4.396;2024-01-25T14:25:40;17.77;;;13.97;;